Aérodrome :
LOGIN :

S'inscrire | Disclaimer

   EN    FR    IT 

 










Légende :    VFR   VFR Marginal   IFR   IFR Intensif   IFR Très Intensif
Visi : 
Plafond : 
>= 8 km
>= 3000ft
5 à 8 km
1000 à 3000 ft
1500m à 5 km
500 à 1000 ft
800 à 1500m
200 à 500 ft
< 800m
< 200 ft
Symboles :   Orages  Brouillard  Fortes neiges  Fortes précipitations  Vent > 20 kt
SIGMETs :   Divers  Orages  Givrage  Turbulence  Onde Orograph.  Cendres Volcan.






- Altitude de l'aérodrome : 288 ft
- Code IATA : BZZ


EGVN - RAF Brize Norton

DERNIER METAR :
  • 300420Z 24002KT 0200 FG VV/// 06/06 Q1026 NOSIG RMK RED RED

METARs EXPIRÉS :
  • 300350Z 23002KT 0200 FG VV/// 06/06 Q1026 NOSIG RMK RED RED
  • 300320Z 23003KT 0200 FG VV/// 06/06 Q1026 NOSIG RMK RED RED
  • 300250Z 23003KT 0300 FG VV/// 06/06 Q1026 NOSIG RMK RED RED
  • 300220Z 23002KT 0300 FG VV/// 06/06 Q1027 NOSIG RMK RED RED
  • 300150Z 25002KT 0200 FG VV/// 06/06 Q1027 NOSIG RMK RED RED

TAF TAF EGVN
Valide du 30 à 03h jusqu'au 01 à 03h UTC


300139Z 3003/0103 25004KT 0300 FG VV///
BECMG 3009/3011 4500 HZ BKN007
BECMG 3011/3013 8000 FEW008 BKN048
TEMPO 3016/3023 BKN015
PROB30
TEMPO 3016/3023 7000 -RA BKN010



MET'MAP, la Météo Aéronautique d'un coup d'oeil ! - Copyright ORBIFLY Décembre 2007 - Disclaimer

ORBIFLY MET'MAP TEAM :

Programmation & Développement : Alexandra Zaïnal
Sur une idée originale de : Baudouin d'Aumeries
Assistance à la programmation : Marc-Olivier Méhu
Soutien technique & logistique : Manuel Goepfert

Contact : metmap@orbifly.com




SOURCES & CREDITS :

   NOAA